createdAt,value
2019-05-11T00:01:12.949Z,12.20
2019-05-11T00:03:41.821Z,12.20
2019-05-11T00:06:10.685Z,12.20
2019-05-11T00:08:39.465Z,12.20
2019-05-11T00:11:08.273Z,12.20
2019-05-11T00:13:37.141Z,12.10
2019-05-11T00:16:05.888Z,12.10
2019-05-11T00:18:34.678Z,12.00
2019-05-11T00:21:03.497Z,12.00
2019-05-11T00:23:32.317Z,11.90
2019-05-11T00:26:01.095Z,11.90
2019-05-11T00:28:29.963Z,11.80
2019-05-11T00:30:58.789Z,11.80
2019-05-11T00:33:27.629Z,11.70
2019-05-11T00:35:56.467Z,11.60
2019-05-11T00:38:25.296Z,11.60
2019-05-11T00:40:54.133Z,11.60
2019-05-11T00:43:22.945Z,11.60
2019-05-11T00:45:51.792Z,11.50
2019-05-11T00:48:20.641Z,11.50
2019-05-11T00:50:49.483Z,11.50
2019-05-11T00:53:18.320Z,11.40
2019-05-11T00:55:47.175Z,11.40
2019-05-11T00:58:16.024Z,11.40
2019-05-11T01:00:44.822Z,11.30
2019-05-11T01:03:13.660Z,11.30
2019-05-11T01:05:42.811Z,11.40
2019-05-11T01:08:11.632Z,11.40
2019-05-11T01:10:42.507Z,11.40
2019-05-11T01:13:10.985Z,11.50
2019-05-11T01:15:39.753Z,11.50
2019-05-11T01:18:08.587Z,11.50
2019-05-11T01:20:37.423Z,11.50
2019-05-11T01:23:06.269Z,11.50
2019-05-11T01:25:35.099Z,11.60
2019-05-11T01:28:04.031Z,11.60
2019-05-11T01:30:32.871Z,11.60
2019-05-11T01:33:01.709Z,11.60
2019-05-11T01:35:30.529Z,11.70
2019-05-11T01:37:59.418Z,11.70
2019-05-11T01:40:28.293Z,11.60
2019-05-11T01:42:57.095Z,11.60
2019-05-11T01:45:25.864Z,11.60
2019-05-11T01:47:54.636Z,11.70
2019-05-11T01:50:23.492Z,11.70
2019-05-11T01:52:52.319Z,11.60
2019-05-11T01:55:21.172Z,11.60
2019-05-11T01:57:50.025Z,11.60
2019-05-11T02:00:18.987Z,11.50
2019-05-11T02:02:53.710Z,11.50
2019-05-11T02:05:29.057Z,11.40
2019-05-11T02:07:59.303Z,11.50
2019-05-11T02:10:28.404Z,11.40
2019-05-11T02:12:57.276Z,11.40
2019-05-11T02:15:26.114Z,11.30
2019-05-11T02:17:54.962Z,11.30
2019-05-11T02:20:23.808Z,11.20
2019-05-11T02:22:52.588Z,11.20
2019-05-11T02:25:21.457Z,11.10
2019-05-11T02:27:50.290Z,11.10
2019-05-11T02:30:19.424Z,11.00
2019-05-11T02:32:48.296Z,10.90
2019-05-11T02:35:17.125Z,10.80
2019-05-11T02:37:45.964Z,10.80
2019-05-11T02:40:15.422Z,10.80
2019-05-11T02:42:44.283Z,10.80
2019-05-11T02:45:13.087Z,10.80
2019-05-11T02:47:42.104Z,10.70
2019-05-11T02:50:11.552Z,10.70
2019-05-11T02:52:40.513Z,10.80
2019-05-11T02:55:09.508Z,10.80
2019-05-11T02:57:38.345Z,10.80
2019-05-11T03:00:10.814Z,10.80
2019-05-11T03:02:39.565Z,10.80
2019-05-11T03:05:08.398Z,10.90
2019-05-11T03:07:37.283Z,10.90
2019-05-11T03:10:06.309Z,11.00
2019-05-11T03:12:35.077Z,11.00
2019-05-11T03:15:05.515Z,11.10
2019-05-11T03:17:34.408Z,11.20
2019-05-11T03:20:03.386Z,11.20
2019-05-11T03:22:32.236Z,11.30
2019-05-11T03:25:01.090Z,11.40
2019-05-11T03:27:29.918Z,11.40
2019-05-11T03:30:01.108Z,11.50
2019-05-11T03:32:29.209Z,11.60
2019-05-11T03:34:58.041Z,11.70
2019-05-11T03:37:26.892Z,11.70
2019-05-11T03:39:55.733Z,11.80
2019-05-11T03:42:24.586Z,11.90
2019-05-11T03:44:53.503Z,11.90
2019-05-11T03:47:22.288Z,12.00
2019-05-11T03:49:51.117Z,11.90
2019-05-11T03:52:19.906Z,11.90
2019-05-11T03:54:48.737Z,11.90
2019-05-11T03:57:17.589Z,11.80
2019-05-11T03:59:46.555Z,11.90
2019-05-11T04:02:16.597Z,11.90
2019-05-11T04:04:45.449Z,11.90
2019-05-11T04:07:14.606Z,11.90
2019-05-11T04:09:43.471Z,11.80
2019-05-11T04:12:12.314Z,11.80
2019-05-11T04:14:41.104Z,11.80
2019-05-11T04:17:09.869Z,11.90
2019-05-11T04:19:38.705Z,11.90
2019-05-11T04:22:07.533Z,11.90
2019-05-11T04:24:36.385Z,12.00
2019-05-11T04:27:05.142Z,12.00
2019-05-11T04:29:33.930Z,12.00
2019-05-11T04:32:02.714Z,12.10
2019-05-11T04:34:31.529Z,12.20
2019-05-11T04:37:00.293Z,12.20
2019-05-11T04:39:29.166Z,12.30
2019-05-11T04:41:57.966Z,12.30
2019-05-11T04:44:27.070Z,12.30
2019-05-11T04:46:56.042Z,12.30
2019-05-11T04:49:24.830Z,12.40
2019-05-11T04:51:53.675Z,12.50
2019-05-11T04:54:22.577Z,12.50
2019-05-11T04:56:51.404Z,12.40
2019-05-11T04:59:20.197Z,12.40
2019-05-11T05:01:49.052Z,12.50
2019-05-11T05:04:17.919Z,12.60
2019-05-11T05:06:58.964Z,12.80
2019-05-11T05:09:17.240Z,13.00
2019-05-11T05:11:46.075Z,13.10
2019-05-11T05:14:14.928Z,13.20
2019-05-11T05:16:43.769Z,13.40
2019-05-11T05:19:12.611Z,13.40
2019-05-11T05:21:41.485Z,13.50
2019-05-11T05:24:10.318Z,13.60
2019-05-11T05:26:39.228Z,13.60
2019-05-11T05:29:08.086Z,13.50
2019-05-11T05:31:36.925Z,13.50
2019-05-11T05:34:05.718Z,13.50
2019-05-11T05:36:34.541Z,13.20
2019-05-11T05:39:08.613Z,13.20
2019-05-11T05:41:35.442Z,13.20
2019-05-11T05:44:04.316Z,13.10
2019-05-11T05:46:33.268Z,13.20
2019-05-11T05:49:02.084Z,13.40
2019-05-11T05:51:31.049Z,13.60
2019-05-11T05:53:59.911Z,13.80
2019-05-11T05:56:28.761Z,14.20
2019-05-11T05:58:57.711Z,14.40
2019-05-11T06:01:26.553Z,14.70
2019-05-11T06:03:55.456Z,14.80
2019-05-11T06:06:24.374Z,14.80
2019-05-11T06:08:53.204Z,14.80
2019-05-11T06:11:22.014Z,14.80
2019-05-11T06:13:50.760Z,14.70
2019-05-11T06:16:19.519Z,14.80
2019-05-11T06:18:51.363Z,15.00
2019-05-11T06:21:20.249Z,15.00
2019-05-11T06:23:50.584Z,15.20
2019-05-11T06:26:20.156Z,15.20
2019-05-11T06:28:49.391Z,15.30
2019-05-11T06:31:18.332Z,15.30
2019-05-11T06:33:47.598Z,15.40
2019-05-11T06:36:17.992Z,15.40
2019-05-11T06:38:46.856Z,15.20
2019-05-11T06:41:15.772Z,15.30
2019-05-11T06:43:59.552Z,15.30
2019-05-11T06:46:15.617Z,15.30
2019-05-11T06:48:44.649Z,15.40
2019-05-11T06:51:13.414Z,15.50
2019-05-11T06:53:42.443Z,15.40
2019-05-11T06:56:11.294Z,15.60
2019-05-11T06:58:40.617Z,15.80
2019-05-11T07:01:09.370Z,16.00
2019-05-11T07:03:38.341Z,16.10
2019-05-11T07:06:07.436Z,16.20
2019-05-11T07:08:36.271Z,16.50
2019-05-11T07:11:05.168Z,16.70
2019-05-11T07:13:34.109Z,16.70
2019-05-11T07:16:02.945Z,16.90
2019-05-11T07:18:32.017Z,16.80
2019-05-11T07:21:00.787Z,16.70
2019-05-11T07:23:29.813Z,16.80
2019-05-11T07:26:00.295Z,16.80
2019-05-11T07:28:29.325Z,16.80
2019-05-11T07:30:58.147Z,16.70
2019-05-11T07:33:28.691Z,16.70
2019-05-11T07:35:58.326Z,16.90
2019-05-11T07:38:27.948Z,17.10
2019-05-11T07:40:58.201Z,17.40
2019-05-11T07:43:28.780Z,17.40
2019-05-11T07:45:58.423Z,17.50
2019-05-11T07:48:27.988Z,17.80
2019-05-11T07:50:58.402Z,17.80
2019-05-11T07:53:28.055Z,18.20
2019-05-11T07:55:57.727Z,18.20
2019-05-11T07:58:28.535Z,18.30
2019-05-11T08:00:58.274Z,18.20
2019-05-11T08:03:28.399Z,18.10
2019-05-11T08:06:02.478Z,18.10
2019-05-11T08:08:29.399Z,18.30
2019-05-11T08:10:58.767Z,18.70
2019-05-11T08:13:28.731Z,18.80
2019-05-11T08:15:57.929Z,18.90
2019-05-11T08:18:28.160Z,19.00
2019-05-11T08:20:58.322Z,19.10
2019-05-11T08:23:28.566Z,19.10
2019-05-11T08:25:58.219Z,19.00
2019-05-11T08:28:28.789Z,19.10
2019-05-11T08:30:58.018Z,18.70
2019-05-11T08:33:28.394Z,18.60
2019-05-11T08:35:58.255Z,18.90
2019-05-11T08:38:28.555Z,19.30
2019-05-11T08:40:59.178Z,19.60
2019-05-11T08:43:28.604Z,19.60
2019-05-11T08:45:58.010Z,20.20
2019-05-11T08:48:28.339Z,20.40
2019-05-11T08:50:58.194Z,20.70
2019-05-11T08:53:33.780Z,21.20
2019-05-11T08:56:02.841Z,21.40
2019-05-11T08:58:32.373Z,21.90
2019-05-11T09:01:01.550Z,22.10
2019-05-11T09:03:31.269Z,22.00
2019-05-11T09:06:00.084Z,21.60
2019-05-11T09:08:28.931Z,21.60
2019-05-11T09:10:58.318Z,21.40
2019-05-11T09:13:28.065Z,21.50
2019-05-11T09:15:58.867Z,21.40
2019-05-11T09:18:32.956Z,21.70
2019-05-11T09:21:04.311Z,21.60
2019-05-11T09:23:37.344Z,20.90
2019-05-11T09:26:03.726Z,20.80
2019-05-11T09:28:32.561Z,21.20
2019-05-11T09:31:01.537Z,21.20
2019-05-11T09:33:30.340Z,21.60
2019-05-11T09:35:59.354Z,21.70
2019-05-11T09:38:28.342Z,21.90
2019-05-11T09:40:58.700Z,22.50
2019-05-11T09:43:28.356Z,22.30
2019-05-11T09:45:58.247Z,22.80
2019-05-11T09:48:28.437Z,23.20
2019-05-11T09:50:58.768Z,23.70
2019-05-11T09:53:28.403Z,24.00
2019-05-11T09:55:58.697Z,23.70
2019-05-11T09:58:30.269Z,23.60
2019-05-11T10:00:58.969Z,23.50
2019-05-11T10:03:28.206Z,23.00
2019-05-11T10:05:58.003Z,21.90
2019-05-11T10:08:28.674Z,20.80
2019-05-11T10:10:58.143Z,19.80
2019-05-11T10:13:27.858Z,19.10
2019-05-11T10:16:04.374Z,19.10
2019-05-11T10:18:28.250Z,19.40
2019-05-11T10:20:58.609Z,19.90
2019-05-11T10:23:27.994Z,19.40
2019-05-11T10:25:58.717Z,19.20
2019-05-11T10:28:28.448Z,19.80
2019-05-11T10:30:58.026Z,20.20
2019-05-11T10:33:28.137Z,20.40
2019-05-11T10:35:58.762Z,20.60
2019-05-11T10:38:28.538Z,20.90
2019-05-11T10:40:58.169Z,20.90
2019-05-11T10:43:28.853Z,20.60
2019-05-11T10:45:58.787Z,20.40
2019-05-11T10:48:28.266Z,20.50
2019-05-11T10:50:57.698Z,20.30
2019-05-11T10:53:27.812Z,20.20
2019-05-11T10:55:58.174Z,19.90
2019-05-11T10:58:28.503Z,19.70
2019-05-11T11:00:58.241Z,19.40
2019-05-11T11:03:28.413Z,19.10
2019-05-11T11:05:58.083Z,18.40
2019-05-11T11:08:27.832Z,18.30
2019-05-11T11:10:58.566Z,18.50
2019-05-11T11:13:28.118Z,18.50
2019-05-11T11:15:58.150Z,18.50
2019-05-11T11:18:28.757Z,18.20
2019-05-11T11:20:58.151Z,18.00
2019-05-11T11:23:28.493Z,17.90
2019-05-11T11:25:58.569Z,17.80
2019-05-11T11:28:28.036Z,17.30
2019-05-11T11:30:58.438Z,17.20
2019-05-11T11:33:27.778Z,17.20
2019-05-11T11:35:57.948Z,17.30
2019-05-11T11:38:28.522Z,17.50
2019-05-11T11:40:59.161Z,17.20
2019-05-11T11:43:28.723Z,17.00
2019-05-11T11:45:58.060Z,16.90
2019-05-11T11:48:28.047Z,16.00
2019-05-11T11:50:58.521Z,15.50
2019-05-11T11:53:27.942Z,15.30
2019-05-11T11:55:58.738Z,15.20
2019-05-11T11:58:27.780Z,15.10
2019-05-11T12:00:58.702Z,15.10
2019-05-11T12:03:27.679Z,15.20
2019-05-11T12:05:58.185Z,15.40
2019-05-11T12:08:28.226Z,15.00
2019-05-11T12:10:58.899Z,14.70
2019-05-11T12:13:29.688Z,14.40
2019-05-11T12:15:58.563Z,14.40
2019-05-11T12:18:28.648Z,14.00
2019-05-11T12:20:58.589Z,13.80
2019-05-11T12:23:28.510Z,13.70
2019-05-11T12:25:58.090Z,13.50
2019-05-11T12:28:27.638Z,13.40
2019-05-11T12:30:58.569Z,13.40
2019-05-11T12:33:27.958Z,13.50
2019-05-11T12:35:58.700Z,13.50
2019-05-11T12:38:27.723Z,13.70
2019-05-11T12:40:57.900Z,13.70
2019-05-11T12:43:27.845Z,13.90
2019-05-11T12:45:58.552Z,14.10
2019-05-11T12:48:28.458Z,14.20
2019-05-11T12:50:58.821Z,14.30
2019-05-11T12:53:28.011Z,14.90
2019-05-11T12:55:58.959Z,15.20
2019-05-11T12:58:28.113Z,15.50
2019-05-11T13:00:58.503Z,15.80
2019-05-11T13:03:27.877Z,16.10
2019-05-11T13:05:58.531Z,16.10
2019-05-11T13:08:27.847Z,16.20
2019-05-11T13:10:58.398Z,16.30
2019-05-11T13:13:28.576Z,16.30
2019-05-11T13:15:58.501Z,16.10
2019-05-11T13:18:27.977Z,15.90
2019-05-11T13:20:58.752Z,16.00
2019-05-11T13:23:27.909Z,16.50
2019-05-11T13:25:58.560Z,16.60
2019-05-11T13:28:28.453Z,16.60
2019-05-11T13:30:58.017Z,16.40
2019-05-11T13:33:28.003Z,16.20
2019-05-11T13:35:57.940Z,16.20
2019-05-11T13:38:28.443Z,16.10
2019-05-11T13:40:59.023Z,16.10
2019-05-11T13:43:28.136Z,15.80
2019-05-11T13:45:58.397Z,15.80
2019-05-11T13:48:28.168Z,16.00
2019-05-11T13:50:58.255Z,15.90
2019-05-11T13:53:27.665Z,15.60
2019-05-11T13:55:58.703Z,15.30
2019-05-11T13:58:27.801Z,15.10
2019-05-11T14:00:58.481Z,15.00
2019-05-11T14:03:28.599Z,14.90
2019-05-11T14:05:58.223Z,15.00
2019-05-11T14:08:27.930Z,14.80
2019-05-11T14:10:58.057Z,14.50
2019-05-11T14:13:28.628Z,14.30
2019-05-11T14:15:58.720Z,14.30
2019-05-11T14:18:28.249Z,14.20
2019-05-11T14:20:58.642Z,14.10
2019-05-11T14:23:30.780Z,14.00
2019-05-11T14:25:58.007Z,13.90
2019-05-11T14:28:28.676Z,13.90
2019-05-11T14:30:57.921Z,13.90
2019-05-11T14:33:28.228Z,13.80
2019-05-11T14:35:57.850Z,13.90
2019-05-11T14:38:28.849Z,13.90
2019-05-11T14:40:58.582Z,13.80
2019-05-11T14:43:27.799Z,13.80
2019-05-11T14:45:57.816Z,13.80
2019-05-11T14:48:29.907Z,13.70
2019-05-11T14:50:59.298Z,13.80
2019-05-11T14:53:28.402Z,13.80
2019-05-11T14:55:58.496Z,13.80
2019-05-11T14:58:27.992Z,13.70
2019-05-11T15:00:58.286Z,13.70
2019-05-11T15:03:28.694Z,13.80
2019-05-11T15:05:58.236Z,13.70
2019-05-11T15:08:28.666Z,13.80
2019-05-11T15:10:57.773Z,13.80
2019-05-11T15:13:28.630Z,13.50
2019-05-11T15:15:58.640Z,13.50
2019-05-11T15:18:36.054Z,13.20
2019-05-11T15:20:58.366Z,13.20
2019-05-11T15:23:28.441Z,13.00
2019-05-11T15:25:58.689Z,12.90
2019-05-11T15:28:28.537Z,12.90
2019-05-11T15:30:58.749Z,13.00
2019-05-11T15:33:31.154Z,13.00
2019-05-11T15:35:59.992Z,12.80
2019-05-11T15:38:28.841Z,12.70
2019-05-11T15:40:58.008Z,12.60
2019-05-11T15:43:28.286Z,12.50
2019-05-11T15:45:57.886Z,12.50
2019-05-11T15:48:26.900Z,12.40
2019-05-11T15:50:57.755Z,12.40
2019-05-11T15:53:26.216Z,12.50
2019-05-11T15:55:55.043Z,12.50
2019-05-11T15:58:23.888Z,12.50
2019-05-11T16:00:52.713Z,12.50
2019-05-11T16:03:21.507Z,12.50
2019-05-11T16:05:53.024Z,12.30
2019-05-11T16:08:21.853Z,12.20
2019-05-11T16:10:51.059Z,12.20
2019-05-11T16:13:20.278Z,12.20
2019-05-11T16:15:49.107Z,12.10
2019-05-11T16:18:18.905Z,12.20
2019-05-11T16:20:50.215Z,12.20
2019-05-11T16:23:20.264Z,12.20
2019-05-11T16:25:49.665Z,12.30
2019-05-11T16:28:19.263Z,12.40
2019-05-11T16:30:48.335Z,12.40
2019-05-11T16:33:18.044Z,12.30
2019-05-11T16:35:49.036Z,12.20
2019-05-11T16:38:18.821Z,12.00
2019-05-11T16:40:48.088Z,12.10
2019-05-11T16:43:18.984Z,12.10
2019-05-11T16:45:48.859Z,11.90
2019-05-11T16:48:18.461Z,11.80
2019-05-11T16:50:47.640Z,11.70
2019-05-11T16:53:18.113Z,11.80
2019-05-11T16:55:48.639Z,11.70
2019-05-11T16:58:19.943Z,11.70
2019-05-11T17:00:49.024Z,11.70
2019-05-11T17:03:18.203Z,11.70
2019-05-11T17:05:48.437Z,11.60
2019-05-11T17:08:18.677Z,11.50
2019-05-11T17:10:59.147Z,11.40
2019-05-11T17:13:28.301Z,11.30
2019-05-11T17:15:58.295Z,11.30
2019-05-11T17:18:28.401Z,11.30
2019-05-11T17:20:59.441Z,11.30
2019-05-11T17:23:30.926Z,11.20
2019-05-11T17:25:58.861Z,11.20
2019-05-11T17:28:27.641Z,11.20
2019-05-11T17:30:58.655Z,11.20
2019-05-11T17:33:38.251Z,11.20
2019-05-11T17:36:08.425Z,11.20
2019-05-11T17:38:38.968Z,11.20
2019-05-11T17:41:08.529Z,11.20
2019-05-11T17:43:38.604Z,11.10
2019-05-11T17:46:08.189Z,11.00
2019-05-11T17:48:38.811Z,11.10
2019-05-11T17:51:20.651Z,11.00
2019-05-11T17:53:39.271Z,11.10
2019-05-11T17:56:08.033Z,11.10
2019-05-11T17:58:37.891Z,11.20
2019-05-11T18:01:09.187Z,11.20
2019-05-11T18:03:38.498Z,11.20
2019-05-11T18:06:08.550Z,11.10
2019-05-11T18:08:37.515Z,11.10
2019-05-11T18:11:08.406Z,11.10
2019-05-11T18:13:38.968Z,11.00
2019-05-11T18:16:08.516Z,11.00
2019-05-11T18:18:37.886Z,11.10
2019-05-11T18:21:08.473Z,11.10
2019-05-11T18:23:38.752Z,11.10
2019-05-11T18:26:08.851Z,11.10
2019-05-11T18:28:37.969Z,11.20
2019-05-11T18:31:06.844Z,11.20
2019-05-11T18:33:38.039Z,11.20
2019-05-11T18:36:15.433Z,11.20
2019-05-11T18:38:44.268Z,11.30
2019-05-11T18:41:14.609Z,11.40
2019-05-11T18:43:43.562Z,11.40
2019-05-11T18:46:12.747Z,11.50
2019-05-11T18:48:41.687Z,11.50
2019-05-11T18:51:10.499Z,11.60
2019-05-11T18:53:39.303Z,11.50
2019-05-11T18:56:09.326Z,11.50
2019-05-11T18:58:39.661Z,11.50
2019-05-11T19:01:08.488Z,11.60
2019-05-11T19:03:38.501Z,11.60
2019-05-11T19:06:09.462Z,11.60
2019-05-11T19:08:38.503Z,11.60
2019-05-11T19:11:09.337Z,11.60
2019-05-11T19:13:38.732Z,11.70
2019-05-11T19:16:08.641Z,11.70
2019-05-11T19:18:38.763Z,11.70
2019-05-11T19:21:09.199Z,11.70
2019-05-11T19:23:38.262Z,11.60
2019-05-11T19:26:08.351Z,11.60
2019-05-11T19:28:38.462Z,11.50
2019-05-11T19:31:08.262Z,11.40
2019-05-11T19:33:38.297Z,11.40
2019-05-11T19:36:08.425Z,11.20
2019-05-11T19:38:38.803Z,11.20
2019-05-11T19:41:08.067Z,11.10
2019-05-11T19:43:38.156Z,11.10
2019-05-11T19:46:09.024Z,11.10
2019-05-11T19:48:38.418Z,11.10
2019-05-11T19:51:10.908Z,11.00
2019-05-11T19:53:38.625Z,10.90
2019-05-11T19:56:10.331Z,10.70
2019-05-11T19:58:39.171Z,10.70
2019-05-11T20:01:08.708Z,10.70
2019-05-11T20:03:37.961Z,10.60
2019-05-11T20:06:08.730Z,10.50
2019-05-11T20:08:37.275Z,10.50
2019-05-11T20:11:08.072Z,10.40
2019-05-11T20:13:38.638Z,10.50
2019-05-11T20:16:08.276Z,10.40
2019-05-11T20:18:39.104Z,10.40
2019-05-11T20:21:18.544Z,10.30
2019-05-11T20:23:38.340Z,10.30
2019-05-11T20:26:08.849Z,10.20
2019-05-11T20:28:40.854Z,10.20
2019-05-11T20:31:11.427Z,10.20
2019-05-11T20:33:40.367Z,10.20
2019-05-11T20:36:09.206Z,10.20
2019-05-11T20:38:38.476Z,10.00
2019-05-11T20:41:10.607Z,10.00
2019-05-11T20:43:42.667Z,10.00
2019-05-11T20:46:14.447Z,9.90
2019-05-11T20:48:43.313Z,9.90
2019-05-11T20:51:12.994Z,9.80
2019-05-11T20:53:42.134Z,9.90
2019-05-11T20:56:11.331Z,9.90
2019-05-11T20:58:58.765Z,9.80
2019-05-11T21:01:28.612Z,9.80
2019-05-11T21:03:58.408Z,9.80
2019-05-11T21:06:29.529Z,9.70
2019-05-11T21:08:58.104Z,9.70
2019-05-11T21:11:26.947Z,9.70
2019-05-11T21:13:55.865Z,9.70
2019-05-11T21:16:24.650Z,9.70
2019-05-11T21:18:53.514Z,9.70
2019-05-11T21:21:22.245Z,9.70
2019-05-11T21:23:51.097Z,9.70
2019-05-11T21:26:19.910Z,9.80
2019-05-11T21:28:48.812Z,9.80
2019-05-11T21:31:18.623Z,10.00
2019-05-11T21:33:47.567Z,10.00
2019-05-11T21:36:18.074Z,10.00
2019-05-11T21:38:48.298Z,10.00
2019-05-11T21:41:17.329Z,10.00
2019-05-11T21:43:48.198Z,9.90
2019-05-11T21:46:18.074Z,9.70
2019-05-11T21:48:47.842Z,9.70
2019-05-11T21:51:18.100Z,9.70
2019-05-11T21:53:48.688Z,9.70
2019-05-11T21:56:18.816Z,9.70
2019-05-11T21:58:47.933Z,9.70
2019-05-11T22:01:20.048Z,9.70
2019-05-11T22:03:47.900Z,9.70
2019-05-11T22:06:16.949Z,9.70
2019-05-11T22:08:48.230Z,9.70
2019-05-11T22:11:18.013Z,9.60
2019-05-11T22:13:48.458Z,9.60
2019-05-11T22:16:17.519Z,9.60
2019-05-11T22:18:48.411Z,9.60
2019-05-11T22:21:18.747Z,9.60
2019-05-11T22:23:50.633Z,9.80
2019-05-11T22:26:18.150Z,9.80
2019-05-11T22:28:48.139Z,9.80
2019-05-11T22:31:18.299Z,9.80
2019-05-11T22:33:48.038Z,9.80
2019-05-11T22:36:16.968Z,9.80
2019-05-11T22:38:48.130Z,9.80
2019-05-11T22:41:18.085Z,9.70
2019-05-11T22:43:48.590Z,9.70
2019-05-11T22:46:17.816Z,9.60
2019-05-11T22:48:48.415Z,9.50
2019-05-11T22:51:18.321Z,9.40
2019-05-11T22:53:50.317Z,9.40
2019-05-11T22:56:19.916Z,9.30
2019-05-11T22:58:49.985Z,9.20
2019-05-11T23:01:19.013Z,9.30
2019-05-11T23:03:47.784Z,9.40
2019-05-11T23:06:18.063Z,9.50
2019-05-11T23:08:48.338Z,9.60
2019-05-11T23:11:17.991Z,9.50
2019-05-11T23:13:47.951Z,9.60
2019-05-11T23:16:18.055Z,9.50
2019-05-11T23:18:48.110Z,9.40
2019-05-11T23:21:16.972Z,9.40
2019-05-11T23:23:47.689Z,9.50
2019-05-11T23:26:17.855Z,9.50
2019-05-11T23:28:48.654Z,9.50
2019-05-11T23:31:17.359Z,9.40
2019-05-11T23:33:46.212Z,9.30
2019-05-11T23:36:15.029Z,9.20
2019-05-11T23:38:43.870Z,9.30
2019-05-11T23:41:24.094Z,9.20
2019-05-11T23:43:43.141Z,9.30
2019-05-11T23:46:11.981Z,9.50
2019-05-11T23:48:40.813Z,9.60
2019-05-11T23:51:09.677Z,9.60
2019-05-11T23:53:38.877Z,9.60
2019-05-11T23:56:07.690Z,9.50
2019-05-11T23:58:38.961Z,9.50
